Time;durP1;ratioP1;P1;durP2;ratioP2;P2;SDS_P1;SDS_P2;PMS_P1;PMS_P2;Temp;Humidity;BMP_temperature;BMP_pressure;BME280_temperature;BME280_humidity;BME280_pressure;Samples;Min_cycle;Max_cycle;Signal;HPM_P1;HPM_P2
2021/03/29 00:00:34;;;;;;;24.32;10.10;;;;;;;2.99;67.00;100636.70;1680520;82;21311;-86
2021/03/29 00:03:14;;;;;;;25.60;10.33;;;;;;;2.97;66.25;100639.65;1691785;81;21292;31
2021/03/29 00:05:48;;;;;;;22.85;9.20;;;;;;;2.93;64.64;100639.52;1710014;80;21308;31
2021/03/29 00:08:27;;;;;;;16.82;7.00;;;;;;;2.84;63.29;100637.52;1702948;79;21297;31
2021/03/29 00:10:57;;;;;;;20.30;7.83;;;;;;;2.76;64.04;100638.56;1690219;81;21319;-88
2021/03/29 00:13:28;;;;;;;15.85;7.10;;;;;;;2.72;63.52;100637.14;1723060;80;21554;-86
2021/03/29 00:15:58;;;;;;;17.90;7.17;;;;;;;2.68;62.15;100636.17;1711270;80;22930;-87
2021/03/29 00:18:31;;;;;;;17.50;7.75;;;;;;;2.64;64.57;100638.18;1719530;79;21366;31
2021/03/29 00:21:06;;;;;;;21.40;8.20;;;;;;;2.61;64.79;100633.36;1707831;80;21274;-83
2021/03/29 00:23:36;;;;;;;19.25;8.35;;;;;;;2.56;65.81;100640.50;1731728;79;21122;-81
2021/03/29 00:26:06;;;;;;;16.40;7.90;;;;;;;2.56;63.72;100639.64;1739184;80;21251;-83
2021/03/29 00:28:35;;;;;;;20.20;8.13;;;;;;;2.53;64.50;100637.85;1701937;79;21187;-84
2021/03/29 00:31:09;;;;;;;14.25;6.87;;;;;;;2.52;66.30;100645.08;1710771;80;21363;-84
2021/03/29 00:33:40;;;;;;;16.75;7.15;;;;;;;2.49;64.86;100647.56;1716958;80;21171;31
2021/03/29 00:36:21;;;;;;;16.65;7.83;;;;;;;2.45;64.07;100652.14;1758076;80;21269;31
2021/03/29 00:38:52;;;;;;;17.52;5.97;;;;;;;2.41;64.87;100650.30;1727581;78;21122;-86
2021/03/29 00:44:36;;;;;;;15.45;6.75;;;;;;;2.32;66.33;100649.98;1637616;83;21212;-84
2021/03/29 00:47:04;;;;;;;16.75;6.05;;;;;;;2.21;65.07;100642.33;1702188;80;21175;-81
2021/03/29 00:49:33;;;;;;;17.98;6.90;;;;;;;2.25;65.19;100657.00;1763163;81;21101;-82
2021/03/29 00:52:02;;;;;;;14.68;6.55;;;;;;;2.23;66.88;100656.08;1713943;84;21269;-80
2021/03/29 00:57:57;;;;;;;15.60;5.90;;;;;;;2.12;65.06;100657.87;1721249;79;21166;-81
2021/03/29 01:00:31;;;;;;;14.70;7.05;;;;;;;2.06;62.81;100655.11;1699383;79;22962;-85
2021/03/29 01:02:59;;;;;;;14.65;6.55;;;;;;;2.01;67.31;100656.66;1730861;79;21459;-81
2021/03/29 01:08:23;;;;;;;15.98;7.40;;;;;;;1.94;67.51;100655.97;1730585;80;22567;-85
2021/03/29 01:17:17;;;;;;;15.40;6.90;;;;;;;1.81;66.35;100655.06;1659778;81;21546;31
2021/03/29 01:20:00;;;;;;;19.20;8.08;;;;;;;1.76;67.60;100662.19;1719761;81;21394;31
2021/03/29 01:22:43;;;;;;;14.80;7.67;;;;;;;1.71;68.62;100657.33;1640705;81;21252;31
2021/03/29 01:28:23;;;;;;;22.80;8.63;;;;;;;1.67;68.02;100664.45;1680155;81;21172;-83
2021/03/29 01:30:53;;;;;;;20.72;9.15;;;;;;;1.64;66.55;100667.30;1680568;79;21370;-88
2021/03/29 01:33:22;;;;;;;19.75;8.90;;;;;;;1.62;68.58;100667.23;1696829;80;21344;-82
2021/03/29 01:36:04;;;;;;;20.45;9.08;;;;;;;1.59;69.97;100668.40;1706220;80;21329;31
2021/03/29 01:47:33;;;;;;;26.40;8.25;;;;;;;1.40;68.84;100661.74;1707289;79;21191;31
2021/03/29 01:56:24;;;;;;;23.15;8.18;;;;;;;1.30;69.41;100660.52;1668719;83;21142;31
2021/03/29 02:05:22;;;;;;;20.08;7.60;;;;;;;1.07;70.41;100667.33;1715078;80;22528;31
2021/03/29 02:08:04;;;;;;;16.60;7.00;;;;;;;1.03;67.29;100660.75;1708793;79;21180;31
2021/03/29 02:10:42;;;;;;;18.55;7.30;;;;;;;0.99;66.02;100656.81;1708930;80;22926;31
2021/03/29 02:13:35;;;;;;;15.95;6.67;;;;;;;0.95;69.00;100657.89;1714494;80;21371;31
2021/03/29 02:19:19;;;;;;;15.75;7.03;;;;;;;0.83;70.74;100657.01;1720830;79;21323;-86
2021/03/29 02:22:00;;;;;;;18.82;7.20;;;;;;;0.83;71.68;100658.70;1667190;81;22498;31
2021/03/29 02:24:30;;;;;;;22.90;7.55;;;;;;;0.83;69.70;100661.27;1727441;80;21259;-83
2021/03/29 02:36:21;;;;;;;18.97;9.20;;;;;;;0.70;70.23;100668.47;1688900;82;22883;31
2021/03/29 02:38:53;;;;;;;18.90;8.07;;;;;;;0.66;72.04;100675.97;1702135;80;21329;31
2021/03/29 02:41:31;;;;;;;19.17;8.53;;;;;;;0.63;70.43;100675.41;1714746;79;21360;31
2021/03/29 02:44:02;;;;;;;16.93;7.12;;;;;;;0.61;69.72;100674.89;1698602;80;21257;-83
2021/03/29 02:46:41;;;;;;;20.30;8.30;;;;;;;0.57;70.84;100682.85;1645975;82;21283;-83
2021/03/29 02:49:18;;;;;;;18.10;7.65;;;;;;;0.51;70.54;100678.35;1657195;82;21228;31
2021/03/29 02:52:02;;;;;;;28.65;9.75;;;;;;;0.52;68.68;100686.52;1652612;81;21234;31
2021/03/29 02:57:43;;;;;;;23.20;9.25;;;;;;;0.47;69.03;100690.55;1610943;85;21166;31
2021/03/29 03:03:13;;;;;;;30.92;9.95;;;;;;;0.40;71.57;100691.13;1670418;81;21294;31
2021/03/29 03:11:40;;;;;;;27.58;8.43;;;;;;;0.29;73.42;100688.52;1732393;81;21147;-83
2021/03/29 03:17:16;;;;;;;19.65;8.35;;;;;;;0.22;69.76;100686.50;1735394;81;21140;-83
2021/03/29 03:19:44;;;;;;;27.70;9.00;;;;;;;0.20;74.25;100683.91;1708417;79;21270;-82
2021/03/29 03:22:18;;;;;;;33.17;9.30;;;;;;;0.19;71.16;100689.41;1692557;80;21284;31
2021/03/29 03:24:46;;;;;;;25.72;9.05;;;;;;;0.17;71.05;100683.34;1721951;80;21161;-82
2021/03/29 03:27:27;;;;;;;25.70;9.77;;;;;;;0.15;71.68;100676.43;1715202;81;21208;31
2021/03/29 03:29:55;;;;;;;20.95;9.48;;;;;;;0.19;74.40;100677.03;1727065;80;21135;-84
2021/03/29 03:33:01;;;;;;;20.62;8.73;;;;;;;0.20;71.98;100683.91;1725668;79;21224;31
2021/03/29 03:35:34;;;;;;;24.40;10.53;;;;;;;0.22;73.70;100678.45;1701476;80;21276;31
2021/03/29 03:41:13;;;;;;;29.57;10.70;;;;;;;0.21;69.57;100684.77;1742152;79;21390;-84
2021/03/29 03:43:57;;;;;;;28.83;10.63;;;;;;;0.14;74.65;100680.68;1727163;83;21249;-82
2021/03/29 03:46:37;;;;;;;32.03;10.77;;;;;;;0.12;72.37;100686.14;1720263;79;21518;31
2021/03/29 03:49:11;;;;;;;30.80;10.58;;;;;;;0.08;74.75;100684.26;1640308;87;21255;-83
2021/03/29 03:51:40;;;;;;;40.85;13.60;;;;;;;0.07;71.31;100693.14;1686385;80;21236;-83
2021/03/29 03:59:57;;;;;;;48.98;12.40;;;;;;;-0.02;71.59;100692.31;1709334;80;21195;-81
2021/03/29 04:05:40;;;;;;;32.67;10.28;;;;;;;-0.07;70.35;100698.52;1737172;79;21838;31
2021/03/29 04:08:24;;;;;;;;;;;;;;;-0.11;72.28;100695.77;1711972;81;21652;31
2021/03/29 04:10:53;;;;;;;21.48;8.53;;;;;;;-0.14;71.42;100696.52;1709815;79;20126;-84
2021/03/29 04:13:42;;;;;;;26.85;9.03;;;;;;;-0.16;71.72;100701.98;1730216;79;21285;31
2021/03/29 04:16:10;;;;;;;38.40;11.73;;;;;;;-0.18;73.81;100698.86;1707791;80;21273;-82
2021/03/29 04:19:05;;;;;;;40.88;11.25;;;;;;;-0.19;74.34;100699.27;1690061;81;22444;31
2021/03/29 04:21:34;;;;;;;38.38;11.15;;;;;;;-0.22;70.95;100698.74;1690631;81;21145;-81
2021/03/29 04:24:05;;;;;;;36.95;10.40;;;;;;;-0.26;70.67;100703.25;1692158;85;21166;-83
2021/03/29 04:26:41;;;;;;;31.65;10.18;;;;;;;-0.28;70.82;100703.59;1692610;81;21369;31
2021/03/29 04:29:20;;;;;;;36.53;10.75;;;;;;;-0.33;73.39;100701.63;1664662;79;22650;31
2021/03/29 04:34:57;;;;;;;31.73;11.00;;;;;;;-0.36;71.28;100701.06;1692682;81;21141;-82
2021/03/29 04:37:25;;;;;;;44.05;11.68;;;;;;;-0.41;74.60;100708.95;1748127;82;21103;-82
2021/03/29 04:43:07;;;;;;;33.02;11.12;;;;;;;-0.47;72.77;100702.28;1669072;81;21305;31
2021/03/29 04:49:02;;;;;;;23.55;10.05;;;;;;;-0.53;71.19;100708.40;1682934;80;21162;31
2021/03/29 04:54:47;;;;;;;31.82;11.95;;;;;;;-0.54;72.65;100699.84;1628066;88;21166;-79
2021/03/29 05:03:42;;;;;;;30.70;10.82;;;;;;;-0.41;74.98;100698.73;1696074;81;22881;31
2021/03/29 05:06:36;;;;;;;28.38;11.30;;;;;;;-0.35;73.50;100700.27;1690572;81;21644;31
2021/03/29 05:15:30;;;;;;;24.65;9.58;;;;;;;-0.08;72.88;100700.63;1683354;81;21323;31
2021/03/29 05:18:13;;;;;;;30.10;11.50;;;;;;;0.00;72.12;100699.68;1709217;80;21310;31
2021/03/29 05:20:49;;;;;;;29.18;9.60;;;;;;;0.09;72.07;100692.38;1713378;80;22596;31
2021/03/29 05:26:43;;;;;;;23.70;9.38;;;;;;;0.22;73.46;100693.80;1712436;80;21200;31
2021/03/29 05:29:11;;;;;;;33.85;9.65;;;;;;;0.30;71.98;100701.77;1655556;84;21281;-86
2021/03/29 05:31:47;;;;;;;31.37;9.00;;;;;;;0.34;73.17;100699.42;1705341;81;21251;31
2021/03/29 05:43:43;;;;;;;25.05;8.63;;;;;;;0.58;72.56;100698.28;1710932;81;21131;-80
2021/03/29 05:46:25;;;;;;;36.13;10.60;;;;;;;0.66;73.32;100705.41;1719267;80;21192;31
2021/03/29 05:55:49;;;;;;;29.90;10.23;;;;;;;0.87;72.00;100699.84;1719904;80;21173;31
2021/03/29 06:01:44;;;;;;;22.65;8.60;;;;;;;0.96;73.22;100695.09;1670444;82;22794;31
2021/03/29 06:04:19;;;;;;;23.92;9.23;;;;;;;1.15;71.37;100694.52;1668678;81;21347;31
2021/03/29 06:13:33;;;;;;;21.27;7.90;;;;;;;1.55;71.31;100684.48;1664508;81;21240;31
2021/03/29 06:37:42;;;;;;;12.87;5.60;;;;;;;2.48;68.35;100684.73;1710779;80;22561;-83
2021/03/29 06:40:24;;;;;;;10.43;4.90;;;;;;;2.53;68.28;100681.50;1705609;81;21582;31
2021/03/29 06:42:52;;;;;;;15.60;5.55;;;;;;;2.65;67.87;100683.59;1639741;86;21281;-84
2021/03/29 06:45:22;;;;;;;19.70;6.12;;;;;;;2.76;67.60;100674.94;1627625;81;21265;-83
2021/03/29 06:47:52;;;;;;;22.07;7.17;;;;;;;2.91;67.67;100681.85;1729629;80;21368;-84
2021/03/29 07:20:39;;;;;;;12.70;4.50;;;;;;;4.94;59.89;100669.75;1689645;81;21248;-85
2021/03/29 07:23:30;;;;;;;12.85;4.37;;;;;;;5.18;60.57;100670.28;1679081;82;21244;-85
2021/03/29 07:30:33;;;;;;;13.05;4.67;;;;;;;5.59;58.17;100668.16;1729617;79;21159;-91
2021/03/29 07:39:44;;;;;;;12.10;5.08;;;;;;;6.23;53.39;100659.49;1677262;84;21275;-90
2021/03/29 07:42:30;;;;;;;9.45;3.58;;;;;;;6.35;55.48;100646.78;1659831;85;21166;-89
2021/03/29 07:45:11;;;;;;;10.75;2.67;;;;;;;6.60;53.72;100658.80;1674791;80;21305;-92
2021/03/29 07:48:08;;;;;;;11.93;3.25;;;;;;;6.76;50.14;100658.22;1690965;82;21230;-91
2021/03/29 07:54:51;;;;;;;8.83;3.20;;;;;;;7.17;50.63;100657.07;1660074;80;21242;-87
2021/03/29 07:58:01;;;;;;;7.30;3.05;;;;;;;7.44;52.22;100662.16;1673978;81;21235;-90
2021/03/29 08:01:10;;;;;;;8.15;3.55;;;;;;;7.61;47.07;100658.06;1681071;84;22074;-89
2021/03/29 08:03:53;;;;;;;11.05;3.20;;;;;;;7.79;45.95;100660.00;1672995;84;21163;-87
2021/03/29 08:06:40;;;;;;;7.75;2.98;;;;;;;7.92;47.78;100651.95;1678404;84;21275;-87
2021/03/29 08:09:47;;;;;;;11.83;2.98;;;;;;;8.08;48.44;100653.84;1648546;85;21173;-90
2021/03/29 08:12:29;;;;;;;10.55;2.70;;;;;;;8.28;45.47;100649.28;1666337;83;21171;-89
2021/03/29 08:14:57;;;;;;;20.45;5.92;;;;;;;8.44;45.67;100639.95;1660401;86;21866;-88
2021/03/29 08:17:52;;;;;;;5.85;2.77;;;;;;;8.62;46.12;100643.98;1666172;84;21157;-92
2021/03/29 08:20:36;;;;;;;7.67;2.83;;;;;;;8.76;45.93;100635.87;1660264;84;21172;-89
2021/03/29 08:23:35;;;;;;;6.50;2.70;;;;;;;8.91;45.46;100636.41;1663598;84;21137;-90
2021/03/29 08:26:09;;;;;;;7.70;3.00;;;;;;;9.09;42.87;100635.66;1666907;84;21920;-90
2021/03/29 08:29:12;;;;;;;6.67;2.58;;;;;;;9.22;40.91;100635.28;1664191;85;21609;-89
2021/03/29 08:32:09;;;;;;;6.87;2.65;;;;;;;9.40;43.41;100628.45;1668149;85;21169;-93
2021/03/29 08:35:02;;;;;;;7.97;2.90;;;;;;;9.58;41.58;100625.91;1665495;86;21126;-93
2021/03/29 08:37:49;;;;;;;13.13;3.40;;;;;;;9.83;42.41;100632.05;1670585;84;21201;-91
2021/03/29 08:40:29;;;;;;;7.55;3.12;;;;;;;10.01;40.57;100635.12;1664131;86;21146;-92
2021/03/29 08:43:06;;;;;;;8.00;3.27;;;;;;;10.13;40.62;100629.94;1718053;80;21285;-91
2021/03/29 08:45:36;;;;;;;9.95;3.42;;;;;;;10.33;39.81;100630.43;1726886;82;21162;-89
2021/03/29 08:48:07;;;;;;;10.58;3.47;;;;;;;10.38;39.84;100626.08;1726039;82;21144;-88
2021/03/29 08:50:40;;;;;;;8.50;3.65;;;;;;;10.50;39.11;100629.12;1716646;82;21503;-89
2021/03/29 08:53:15;;;;;;;8.85;3.40;;;;;;;10.62;39.53;100629.55;1767661;80;21222;-89
2021/03/29 08:55:46;;;;;;;11.00;3.92;;;;;;;10.77;39.77;100628.69;1756368;81;21301;-92
2021/03/29 08:58:15;;;;;;;10.10;3.15;;;;;;;10.88;39.62;100627.80;1717609;83;21573;-89
2021/03/29 09:00:45;;;;;;;8.33;3.60;;;;;;;11.01;40.43;100623.86;1722585;83;21132;-92
2021/03/29 09:03:18;;;;;;;12.13;4.00;;;;;;;11.20;39.64;100628.56;1725355;82;21256;-90
2021/03/29 09:05:49;;;;;;;8.30;3.25;;;;;;;11.30;39.01;100629.84;1774687;80;21298;-91
2021/03/29 09:08:19;;;;;;;10.23;3.95;;;;;;;11.45;37.48;100626.75;1761584;81;21262;-92
2021/03/29 09:10:50;;;;;;;9.25;3.67;;;;;;;11.44;37.55;100619.80;1777571;80;21265;-87
2021/03/29 09:13:22;;;;;;;11.85;3.80;;;;;;;11.59;38.97;100626.24;1758270;79;21522;-86
2021/03/29 09:15:52;;;;;;;8.93;3.40;;;;;;;11.69;37.88;100621.41;1771130;80;21299;-88
2021/03/29 09:18:24;;;;;;;7.65;3.58;;;;;;;11.84;38.33;100614.41;1773223;80;21286;-91
2021/03/29 09:20:54;;;;;;;8.35;2.90;;;;;;;11.98;36.70;100615.63;1765649;80;21121;-90
2021/03/29 09:23:32;;;;;;;8.83;3.42;;;;;;;11.92;35.96;100612.20;1776465;80;21308;-92
2021/03/29 09:26:02;;;;;;;14.05;3.70;;;;;;;11.98;36.78;100608.70;1759399;81;21620;-90
2021/03/29 09:28:34;;;;;;;8.80;3.62;;;;;;;12.08;36.60;100611.66;1767294;80;21294;-89
2021/03/29 09:31:21;;;;;;;11.18;3.60;;;;;;;12.20;38.18;100604.64;1762929;80;21872;-92
2021/03/29 09:33:52;;;;;;;7.87;3.12;;;;;;;12.24;35.86;100601.98;1712646;82;21698;-86
2021/03/29 09:36:25;;;;;;;7.65;2.98;;;;;;;12.37;37.83;100599.27;1755067;82;21125;-92
2021/03/29 09:41:36;;;;;;;8.85;3.72;;;;;;;12.40;34.68;100594.05;1804682;79;23163;-82
2021/03/29 09:44:09;;;;;;;8.00;3.40;;;;;;;12.49;37.20;100588.73;1769794;80;21675;-89
2021/03/29 09:46:37;;;;;;;10.43;3.75;;;;;;;12.47;34.99;100596.59;1776765;80;21911;-84
2021/03/29 09:49:14;;;;;;;8.85;3.60;;;;;;;12.50;35.41;100590.47;1777570;80;21279;-87
2021/03/29 09:51:46;;;;;;;8.58;3.75;;;;;;;12.45;35.31;100597.45;1782351;80;21228;-86
2021/03/29 09:54:37;;;;;;;9.38;3.30;;;;;;;12.41;33.85;100597.92;1750405;80;21300;-83
2021/03/29 09:57:18;;;;;;;9.15;3.33;;;;;;;12.48;34.92;100597.00;1778670;80;21158;-85
2021/03/29 09:59:54;;;;;;;10.30;4.17;;;;;;;12.61;36.21;100581.23;1873091;76;22917;-84
2021/03/29 10:02:27;;;;;;;10.32;3.92;;;;;;;12.69;35.35;100580.70;1808905;78;21323;-83
2021/03/29 10:05:02;;;;;;;9.05;4.05;;;;;;;12.82;35.04;100578.41;1779391;80;21141;-83
2021/03/29 10:07:30;;;;;;;9.30;4.60;;;;;;;12.94;34.91;100578.72;1774352;79;21185;-84
2021/03/29 10:10:07;;;;;;;13.25;5.97;;;;;;;13.01;34.05;100583.00;1780019;79;21168;-84
2021/03/29 10:12:36;;;;;;;10.45;4.30;;;;;;;13.13;35.09;100575.47;1789879;80;21509;-85
2021/03/29 10:15:14;;;;;;;8.30;3.77;;;;;;;13.16;32.44;100570.19;1786570;80;21261;-85
2021/03/29 10:17:42;;;;;;;9.00;3.25;;;;;;;13.31;34.53;100572.66;1786856;80;21288;-84
2021/03/29 10:20:14;;;;;;;6.92;3.30;;;;;;;13.52;33.56;100569.33;1789468;80;21272;-85
2021/03/29 10:22:41;;;;;;;10.32;3.60;;;;;;;13.62;34.32;100572.67;1818144;78;21342;-85
2021/03/29 10:27:55;;;;;;;9.30;4.10;;;;;;;13.85;33.79;100558.84;1823112;76;23082;-88
2021/03/29 10:30:27;;;;;;;10.95;4.12;;;;;;;14.00;33.42;100563.40;1797083;78;21212;-84
2021/03/29 10:32:58;;;;;;;11.08;3.72;;;;;;;14.04;31.53;100565.08;1803833;78;21286;-85
2021/03/29 10:35:29;;;;;;;11.95;3.80;;;;;;;14.03;30.09;100563.37;1796819;79;21263;-86
2021/03/29 10:38:01;;;;;;;7.97;3.58;;;;;;;14.16;33.39;100561.41;1794073;79;21509;-85
2021/03/29 10:40:29;;;;;;;7.45;3.58;;;;;;;14.42;33.91;100555.27;1801477;78;21250;-86
2021/03/29 10:42:56;;;;;;;10.80;3.47;;;;;;;14.64;32.99;100553.19;1802857;78;21302;-86
2021/03/29 10:45:27;;;;;;;7.95;3.08;;;;;;;14.89;30.93;100554.02;1802090;79;21247;-86
2021/03/29 10:47:55;;;;;;;8.90;2.87;;;;;;;15.08;31.81;100555.39;1812607;79;21284;-86
2021/03/29 10:50:23;;;;;;;10.53;3.40;;;;;;;15.13;30.87;100552.66;1729411;81;21164;-86
2021/03/29 10:52:51;;;;;;;8.95;3.47;;;;;;;15.27;29.46;100554.55;1766077;78;21239;-85
2021/03/29 10:55:20;;;;;;;7.28;3.05;;;;;;;15.39;30.71;100544.70;1743533;81;21285;-85
2021/03/29 10:57:47;;;;;;;21.77;4.00;;;;;;;15.49;28.37;100539.67;1766106;80;21165;-83
2021/03/29 11:00:16;;;;;;;9.95;3.50;;;;;;;15.66;29.73;100533.60;1763924;81;21454;-85
2021/03/29 11:02:43;;;;;;;8.25;3.45;;;;;;;15.62;26.46;100533.27;1764199;80;21290;-86
2021/03/29 11:05:12;;;;;;;7.37;3.08;;;;;;;15.70;29.41;100533.94;1760421;81;21187;-88
2021/03/29 11:07:40;;;;;;;12.82;3.47;;;;;;;15.79;29.77;100527.64;1737908;81;21236;-87
2021/03/29 11:10:09;;;;;;;8.08;2.83;;;;;;;16.08;30.32;100530.88;1731067;77;21482;-87
2021/03/29 11:12:36;;;;;;;13.75;6.12;;;;;;;16.44;30.07;100524.27;1687763;84;21166;-85
2021/03/29 11:15:06;;;;;;;6.80;3.35;;;;;;;16.62;28.51;100522.91;1684236;84;21332;-85
2021/03/29 11:17:36;;;;;;;5.72;3.00;;;;;;;16.81;28.96;100521.09;1695513;84;21177;-86
2021/03/29 11:20:06;;;;;;;7.25;3.12;;;;;;;17.14;29.69;100519.30;1691301;84;21215;-84
2021/03/29 11:22:34;;;;;;;13.03;3.47;;;;;;;17.43;27.71;100517.11;1708765;83;21158;-86
2021/03/29 11:25:03;;;;;;;7.45;3.22;;;;;;;17.79;28.47;100524.75;1694460;84;21316;-83
2021/03/29 11:27:31;;;;;;;8.45;3.33;;;;;;;18.09;25.82;100518.97;1716369;83;21185;-85
2021/03/29 11:29:59;;;;;;;9.33;3.10;;;;;;;18.28;25.91;100517.02;1758149;79;21236;-81
2021/03/29 11:32:26;;;;;;;9.18;2.70;;;;;;;18.42;26.63;100522.69;1752901;80;21254;-82
2021/03/29 11:34:54;;;;;;;8.25;2.85;;;;;;;18.76;26.09;100516.23;1737515;81;21148;-81
2021/03/29 11:37:22;;;;;;;7.83;2.87;;;;;;;19.09;26.26;100521.19;1728955;81;21173;-81
2021/03/29 11:39:49;;;;;;;7.35;2.60;;;;;;;19.45;25.08;100508.82;1735857;81;21192;-83
2021/03/29 11:42:17;;;;;;;6.50;2.77;;;;;;;19.76;25.74;100492.66;1735363;81;21165;-85
2021/03/29 11:44:44;;;;;;;5.70;2.90;;;;;;;20.07;25.40;100500.62;1734034;81;21184;-81
2021/03/29 11:47:12;;;;;;;7.40;2.80;;;;;;;20.21;25.33;100501.35;1743180;81;21108;-85
2021/03/29 11:49:40;;;;;;;9.05;3.10;;;;;;;20.13;23.27;100497.72;1733326;81;21301;-88
2021/03/29 11:52:08;;;;;;;13.32;5.78;;;;;;;19.86;23.22;100502.39;1734509;83;21239;-85
2021/03/29 11:54:36;;;;;;;8.45;2.92;;;;;;;19.57;23.38;100492.97;1732736;81;21139;-79
2021/03/29 11:57:04;;;;;;;8.13;3.10;;;;;;;19.54;24.14;100493.96;1731261;81;21137;-86
2021/03/29 11:59:31;;;;;;;9.68;4.47;;;;;;;19.06;22.94;100494.49;1741476;81;21651;-87
2021/03/29 12:02:12;;;;;;;9.23;3.65;;;;;;;19.14;22.54;100494.64;1730573;81;21168;-82
2021/03/29 12:04:43;;;;;;;15.72;4.92;;;;;;;19.13;22.95;100491.16;1730446;81;21266;-80
2021/03/29 12:20:35;;;;;;;7.35;2.40;;;;;;;19.46;20.51;100496.05;1698362;77;22497;-86
2021/03/29 12:23:10;;;;;;;11.45;3.30;;;;;;;19.60;20.44;100496.35;1683339;84;21290;-87
2021/03/29 12:25:48;;;;;;;7.62;3.00;;;;;;;20.08;21.95;100493.11;1672626;84;22368;-84
2021/03/29 12:28:17;;;;;;;10.90;3.00;;;;;;;20.43;22.82;100496.00;1676958;83;21207;-82
2021/03/29 12:30:45;;;;;;;5.62;2.62;;;;;;;20.74;20.89;100496.02;1619253;87;21652;-85
2021/03/29 12:33:14;;;;;;;9.40;3.20;;;;;;;20.83;20.19;100500.42;1665032;85;21322;-87
2021/03/29 12:35:43;;;;;;;5.33;2.72;;;;;;;20.75;19.84;100494.63;1658997;84;21339;-87
2021/03/29 12:38:23;;;;;;;9.15;3.30;;;;;;;20.33;20.69;100498.17;1653219;85;21205;-88
2021/03/29 12:41:12;;;;;;;12.82;4.00;;;;;;;20.25;21.42;100496.34;1672134;84;21257;-85
2021/03/29 12:43:57;;;;;;;10.40;3.52;;;;;;;20.35;20.51;100493.72;1635229;86;21232;-87
2021/03/29 12:46:21;;;;;;;6.80;2.83;;;;;;;20.46;21.92;100499.84;1649031;86;21210;-86
2021/03/29 12:48:56;;;;;;;9.20;3.40;;;;;;;19.96;20.98;100501.55;1650761;85;21346;-89
2021/03/29 12:51:37;;;;;;;7.20;3.05;;;;;;;20.10;20.76;100497.02;1612731;86;22090;-87
2021/03/29 12:54:11;;;;;;;8.73;3.15;;;;;;;19.71;21.94;100483.18;1592743;88;21171;-87
2021/03/29 12:56:43;;;;;;;11.80;3.62;;;;;;;19.59;22.00;100495.09;1635975;86;21307;-87
2021/03/29 12:59:12;;;;;;;7.80;3.10;;;;;;;19.43;21.47;100486.92;1651680;85;21177;-85
2021/03/29 13:01:42;;;;;;;6.05;2.90;;;;;;;19.37;22.19;100489.81;1682118;84;21145;-85
2021/03/29 13:07:07;;;;;;;8.00;3.40;;;;;;;19.20;22.59;100491.77;1818781;76;28066;-86
2021/03/29 13:12:00;;;;;;;6.40;3.25;;;;;;;18.58;23.39;100487.89;1788202;79;21283;-85
2021/03/29 13:14:50;;;;;;;6.50;3.42;;;;;;;18.23;23.45;100477.70;1801528;77;21567;-84
2021/03/29 13:17:27;;;;;;;14.47;5.12;;;;;;;18.14;24.16;100479.79;1846719;76;22884;-86
2021/03/29 13:19:56;;;;;;;9.33;3.55;;;;;;;18.05;24.40;100479.20;1797892;79;21218;-87
2021/03/29 13:22:35;;;;;;;9.63;3.87;;;;;;;17.88;24.46;100477.58;1765198;79;21329;-87
2021/03/29 13:25:07;;;;;;;6.83;3.27;;;;;;;17.62;25.14;100481.03;1791631;79;21140;-85
2021/03/29 13:27:35;;;;;;;22.55;8.98;;;;;;;17.65;25.52;100483.12;1763115;79;21144;-82
2021/03/29 13:30:06;;;;;;;5.42;2.92;;;;;;;17.61;25.56;100486.75;1802394;77;21299;-83
2021/03/29 13:32:34;;;;;;;9.00;3.47;;;;;;;17.42;25.49;100480.35;1808011;78;21129;-84
2021/03/29 13:35:05;;;;;;;11.28;3.35;;;;;;;17.15;25.80;100484.67;1810773;78;21569;-84
2021/03/29 13:37:34;;;;;;;7.20;2.70;;;;;;;17.07;26.38;100486.24;1800838;78;21909;-83
2021/03/29 13:40:05;;;;;;;13.10;3.08;;;;;;;17.23;26.23;100476.98;1800018;78;21341;-83
2021/03/29 13:42:33;;;;;;;8.53;3.17;;;;;;;17.36;26.54;100480.08;1807696;77;21287;-80
2021/03/29 13:45:03;;;;;;;7.33;3.30;;;;;;;17.67;25.97;100480.44;1806434;78;21262;-83
2021/03/29 13:47:30;;;;;;;9.70;3.17;;;;;;;17.89;25.88;100474.91;1808471;78;21295;-83
2021/03/29 13:50:02;;;;;;;9.48;3.52;;;;;;;17.95;25.87;100472.99;1741215;81;21337;-84
2021/03/29 13:52:33;;;;;;;6.22;2.80;;;;;;;18.23;25.24;100475.08;1754943;78;21287;-85
2021/03/29 13:55:04;;;;;;;9.00;3.20;;;;;;;18.92;25.39;100479.67;1764644;79;21342;-80
2021/03/29 13:57:31;;;;;;;19.98;4.25;;;;;;;19.30;25.25;100465.91;1768086;80;21192;-84
2021/03/29 13:59:59;;;;;;;7.25;2.90;;;;;;;19.36;23.43;100472.25;1758718;80;21179;-82
2021/03/29 14:02:26;;;;;;;6.25;2.60;;;;;;;19.49;23.73;100465.58;1727647;81;21170;-85
2021/03/29 14:04:54;;;;;;;10.13;3.52;;;;;;;19.83;23.32;100461.59;1759764;80;21759;-85
2021/03/29 14:07:21;;;;;;;6.85;2.75;;;;;;;20.25;22.82;100466.84;1762292;80;21168;-83
2021/03/29 14:09:49;;;;;;;6.85;3.40;;;;;;;19.95;22.69;100459.75;1751254;80;21212;-84
2021/03/29 14:12:19;;;;;;;10.93;3.15;;;;;;;20.22;22.55;100463.01;1774644;80;21287;-83
2021/03/29 14:14:46;;;;;;;7.67;2.98;;;;;;;20.24;23.31;100457.66;1755586;80;21188;-82
2021/03/29 14:17:14;;;;;;;5.33;3.02;;;;;;;20.30;23.23;100454.75;1761084;80;21147;-83
2021/03/29 14:19:41;;;;;;;5.10;2.60;;;;;;;20.65;22.26;100456.30;1753195;81;21186;-83
2021/03/29 14:22:09;;;;;;;4.33;2.52;;;;;;;20.49;22.67;100452.61;1793114;79;21152;-84
2021/03/29 14:24:36;;;;;;;5.78;3.17;;;;;;;20.50;23.26;100455.66;1793999;79;21614;-84
2021/03/29 14:27:04;;;;;;;6.17;2.80;;;;;;;20.74;22.52;100445.33;1770239;79;21152;-85
2021/03/29 14:29:41;;;;;;;9.20;2.87;;;;;;;20.84;21.86;100447.94;1790495;79;21162;-83
2021/03/29 14:32:01;;;;;;;10.30;3.20;;;;;;;21.00;22.12;100444.12;1788944;79;21127;-83
2021/03/29 14:34:31;;;;;;;8.95;2.90;;;;;;;21.42;21.63;100440.82;1795010;79;21164;-84
2021/03/29 14:37:09;;;;;;;9.90;3.20;;;;;;;21.32;21.99;100444.84;1779880;79;21207;-83
2021/03/29 14:42:20;;;;;;;10.43;3.10;;;;;;;21.63;21.66;100435.83;1821501;77;22959;-84
2021/03/29 14:44:43;;;;;;;6.47;3.00;;;;;;;21.79;21.85;100436.41;1817328;78;21284;-84
2021/03/29 14:47:13;;;;;;;6.92;3.00;;;;;;;22.18;20.67;100432.19;1806300;77;21349;-85
2021/03/29 14:49:41;;;;;;;9.48;3.20;;;;;;;21.92;20.33;100428.67;1807320;78;21284;-85
2021/03/29 14:52:10;;;;;;;7.22;2.98;;;;;;;21.64;20.10;100433.56;1812106;78;21298;-84
2021/03/29 14:54:41;;;;;;;7.25;2.65;;;;;;;21.64;21.42;100432.72;1817216;78;21309;-84
2021/03/29 14:57:09;;;;;;;8.63;2.92;;;;;;;21.51;21.23;100423.69;1815729;77;21286;-84
2021/03/29 14:59:38;;;;;;;5.45;2.77;;;;;;;21.57;20.87;100426.03;1812509;77;21298;-85
2021/03/29 15:02:06;;;;;;;8.50;3.27;;;;;;;21.88;20.96;100420.03;1815725;78;21293;-83
2021/03/29 15:07:09;;;;;;;7.58;3.08;;;;;;;22.54;19.87;100421.05;1807823;78;21271;-84
2021/03/29 15:09:34;;;;;;;6.62;2.98;;;;;;;22.24;19.64;100419.09;1813605;78;21261;-84
2021/03/29 15:12:01;;;;;;;8.90;2.80;;;;;;;22.21;20.95;100409.97;1794034;78;21308;-84
2021/03/29 15:14:29;;;;;;;6.87;3.10;;;;;;;22.26;20.12;100419.87;1815674;77;21670;-84
2021/03/29 15:16:57;;;;;;;7.83;3.37;;;;;;;22.60;20.32;100420.72;1810110;77;21305;-84
2021/03/29 15:19:24;;;;;;;8.85;3.75;;;;;;;22.81;19.99;100414.73;1803982;77;21271;-85
2021/03/29 15:21:52;;;;;;;10.35;3.37;;;;;;;22.60;20.89;100416.74;1818073;78;21256;-84
2021/03/29 15:24:20;;;;;;;11.10;3.20;;;;;;;22.48;20.11;100416.94;1825336;78;21292;-84
2021/03/29 15:26:48;;;;;;;5.92;2.80;;;;;;;22.50;20.58;100416.86;1821570;78;21293;-83
2021/03/29 15:29:16;;;;;;;6.58;2.50;;;;;;;22.43;20.07;100413.21;1814309;78;21907;-84
2021/03/29 15:31:45;;;;;;;6.33;2.42;;;;;;;22.30;20.77;100417.44;1805449;77;21300;-84
2021/03/29 15:34:12;;;;;;;6.95;3.00;;;;;;;21.65;20.10;100411.95;1816657;77;21186;-83
2021/03/29 15:36:41;;;;;;;11.60;4.47;;;;;;;20.90;20.87;100417.73;1813253;77;21244;-84
2021/03/29 15:39:12;;;;;;;6.22;2.90;;;;;;;20.18;21.50;100419.18;1818347;77;21161;-84
2021/03/29 15:41:42;;;;;;;10.58;3.10;;;;;;;19.51;22.43;100425.49;1783113;78;21177;-83
2021/03/29 15:44:11;;;;;;;4.95;2.37;;;;;;;19.15;22.79;100423.42;1782595;80;21313;-84